sensor_id;sensor_type;location;lat;lon;timestamp;temperature;humidity
25877;DHT22;13692;47.480;19.216;2024-01-27T00:00:27;7.90;99.90
25877;DHT22;13692;47.480;19.216;2024-01-27T00:02:54;7.90;99.90
25877;DHT22;13692;47.480;19.216;2024-01-27T00:05:21;7.90;99.90
25877;DHT22;13692;47.480;19.216;2024-01-27T00:07:48;7.90;99.90
25877;DHT22;13692;47.480;19.216;2024-01-27T00:10:15;8.00;99.90
25877;DHT22;13692;47.480;19.216;2024-01-27T00:12:42;8.00;99.90
25877;DHT22;13692;47.480;19.216;2024-01-27T00:15:09;8.00;99.90
25877;DHT22;13692;47.480;19.216;2024-01-27T00:17:36;7.90;99.90
25877;DHT22;13692;47.480;19.216;2024-01-27T00:20:03;7.90;99.90
25877;DHT22;13692;47.480;19.216;2024-01-27T00:22:31;7.90;99.90
25877;DHT22;13692;47.480;19.216;2024-01-27T00:24:57;7.80;99.90
25877;DHT22;13692;47.480;19.216;2024-01-27T00:27:24;7.90;99.90
25877;DHT22;13692;47.480;19.216;2024-01-27T00:29:51;7.90;99.90
25877;DHT22;13692;47.480;19.216;2024-01-27T00:32:18;7.90;99.90
25877;DHT22;13692;47.480;19.216;2024-01-27T00:34:45;8.00;99.90
25877;DHT22;13692;47.480;19.216;2024-01-27T00:37:12;8.00;99.90
25877;DHT22;13692;47.480;19.216;2024-01-27T00:39:39;8.00;99.90
25877;DHT22;13692;47.480;19.216;2024-01-27T00:42:07;8.00;99.90
25877;DHT22;13692;47.480;19.216;2024-01-27T00:44:35;8.00;99.90
25877;DHT22;13692;47.480;19.216;2024-01-27T00:47:02;8.10;99.90
25877;DHT22;13692;47.480;19.216;2024-01-27T00:49:30;8.00;99.90
25877;DHT22;13692;47.480;19.216;2024-01-27T00:51:57;8.00;99.90
25877;DHT22;13692;47.480;19.216;2024-01-27T00:54:24;8.00;99.90
25877;DHT22;13692;47.480;19.216;2024-01-27T00:56:52;7.90;99.90
25877;DHT22;13692;47.480;19.216;2024-01-27T00:59:20;8.00;99.90
25877;DHT22;13692;47.480;19.216;2024-01-27T01:01:47;7.90;99.90
25877;DHT22;13692;47.480;19.216;2024-01-27T01:04:14;7.90;99.90
25877;DHT22;13692;47.480;19.216;2024-01-27T01:06:41;7.90;99.90
25877;DHT22;13692;47.480;19.216;2024-01-27T01:09:08;7.90;99.90
25877;DHT22;13692;47.480;19.216;2024-01-27T01:11:35;7.90;99.90
25877;DHT22;13692;47.480;19.216;2024-01-27T01:14:06;7.90;99.90
25877;DHT22;13692;47.480;19.216;2024-01-27T01:16:33;7.90;99.90
25877;DHT22;13692;47.480;19.216;2024-01-27T01:19:00;7.80;99.90
25877;DHT22;13692;47.480;19.216;2024-01-27T01:21:27;7.70;99.90
25877;DHT22;13692;47.480;19.216;2024-01-27T01:23:55;7.60;99.90
25877;DHT22;13692;47.480;19.216;2024-01-27T01:26:22;7.60;99.90
25877;DHT22;13692;47.480;19.216;2024-01-27T01:28:49;7.50;99.90
25877;DHT22;13692;47.480;19.216;2024-01-27T01:31:16;7.50;99.90
25877;DHT22;13692;47.480;19.216;2024-01-27T01:33:44;7.50;99.90
25877;DHT22;13692;47.480;19.216;2024-01-27T01:36:11;7.50;99.90
25877;DHT22;13692;47.480;19.216;2024-01-27T01:38:38;7.50;99.90
25877;DHT22;13692;47.480;19.216;2024-01-27T01:41:05;7.40;99.90
25877;DHT22;13692;47.480;19.216;2024-01-27T01:43:32;7.40;99.90
25877;DHT22;13692;47.480;19.216;2024-01-27T01:45:59;7.40;99.90
25877;DHT22;13692;47.480;19.216;2024-01-27T01:48:26;7.40;99.90
25877;DHT22;13692;47.480;19.216;2024-01-27T01:50:53;7.30;99.90
25877;DHT22;13692;47.480;19.216;2024-01-27T01:53:22;7.30;99.90
25877;DHT22;13692;47.480;19.216;2024-01-27T01:55:50;7.30;99.90
25877;DHT22;13692;47.480;19.216;2024-01-27T01:58:17;7.30;99.90
25877;DHT22;13692;47.480;19.216;2024-01-27T02:00:44;7.30;99.90
25877;DHT22;13692;47.480;19.216;2024-01-27T02:03:13;7.30;99.90
25877;DHT22;13692;47.480;19.216;2024-01-27T02:05:40;7.30;99.90
25877;DHT22;13692;47.480;19.216;2024-01-27T02:08:07;7.30;99.90
25877;DHT22;13692;47.480;19.216;2024-01-27T02:10:35;7.30;99.90
25877;DHT22;13692;47.480;19.216;2024-01-27T02:13:23;7.30;99.90
25877;DHT22;13692;47.480;19.216;2024-01-27T02:15:50;7.20;99.90
25877;DHT22;13692;47.480;19.216;2024-01-27T02:25:32;7.30;99.90
25877;DHT22;13692;47.480;19.216;2024-01-27T02:27:59;7.30;99.90
25877;DHT22;13692;47.480;19.216;2024-01-27T02:30:26;7.20;99.90
25877;DHT22;13692;47.480;19.216;2024-01-27T02:32:53;7.20;99.90
25877;DHT22;13692;47.480;19.216;2024-01-27T02:35:20;7.20;99.90
25877;DHT22;13692;47.480;19.216;2024-01-27T02:37:47;7.20;99.90
25877;DHT22;13692;47.480;19.216;2024-01-27T02:40:14;7.20;99.90
25877;DHT22;13692;47.480;19.216;2024-01-27T02:42:41;7.20;99.90
25877;DHT22;13692;47.480;19.216;2024-01-27T02:45:11;7.20;99.90
25877;DHT22;13692;47.480;19.216;2024-01-27T02:47:39;7.20;99.90
25877;DHT22;13692;47.480;19.216;2024-01-27T02:50:07;7.10;99.90
25877;DHT22;13692;47.480;19.216;2024-01-27T02:52:35;7.10;99.90
25877;DHT22;13692;47.480;19.216;2024-01-27T02:55:02;7.00;99.90
25877;DHT22;13692;47.480;19.216;2024-01-27T02:57:29;7.00;99.90
25877;DHT22;13692;47.480;19.216;2024-01-27T02:59:57;7.00;99.90
25877;DHT22;13692;47.480;19.216;2024-01-27T03:02:24;7.00;99.90
25877;DHT22;13692;47.480;19.216;2024-01-27T03:04:51;6.90;99.90
25877;DHT22;13692;47.480;19.216;2024-01-27T03:07:17;6.90;99.90
25877;DHT22;13692;47.480;19.216;2024-01-27T03:09:44;6.90;99.90
25877;DHT22;13692;47.480;19.216;2024-01-27T03:12:11;6.90;99.90
25877;DHT22;13692;47.480;19.216;2024-01-27T03:14:39;6.90;99.90
25877;DHT22;13692;47.480;19.216;2024-01-27T03:17:06;6.90;99.90
25877;DHT22;13692;47.480;19.216;2024-01-27T03:19:33;6.90;99.90
25877;DHT22;13692;47.480;19.216;2024-01-27T03:22:01;6.90;99.90
25877;DHT22;13692;47.480;19.216;2024-01-27T03:24:28;6.80;99.90
25877;DHT22;13692;47.480;19.216;2024-01-27T03:26:55;6.80;99.90
25877;DHT22;13692;47.480;19.216;2024-01-27T03:29:22;6.80;99.90
25877;DHT22;13692;47.480;19.216;2024-01-27T03:31:49;6.80;99.90
25877;DHT22;13692;47.480;19.216;2024-01-27T03:34:17;6.80;99.90
25877;DHT22;13692;47.480;19.216;2024-01-27T03:36:48;6.80;99.90
25877;DHT22;13692;47.480;19.216;2024-01-27T03:39:15;6.80;99.90
25877;DHT22;13692;47.480;19.216;2024-01-27T03:41:42;6.80;99.90
25877;DHT22;13692;47.480;19.216;2024-01-27T03:44:09;6.80;99.90
25877;DHT22;13692;47.480;19.216;2024-01-27T03:46:36;6.80;99.90
25877;DHT22;13692;47.480;19.216;2024-01-27T03:49:05;6.80;99.90
25877;DHT22;13692;47.480;19.216;2024-01-27T03:51:33;6.70;99.90
25877;DHT22;13692;47.480;19.216;2024-01-27T03:54:00;6.80;99.90
25877;DHT22;13692;47.480;19.216;2024-01-27T03:56:27;6.80;99.90
25877;DHT22;13692;47.480;19.216;2024-01-27T03:58:53;6.70;99.90
25877;DHT22;13692;47.480;19.216;2024-01-27T04:01:21;6.70;99.90
25877;DHT22;13692;47.480;19.216;2024-01-27T04:03:48;6.70;99.90
25877;DHT22;13692;47.480;19.216;2024-01-27T04:06:14;6.70;99.90
25877;DHT22;13692;47.480;19.216;2024-01-27T04:08:42;6.60;99.90
25877;DHT22;13692;47.480;19.216;2024-01-27T04:11:23;6.60;99.90
25877;DHT22;13692;47.480;19.216;2024-01-27T04:13:50;6.60;99.90
25877;DHT22;13692;47.480;19.216;2024-01-27T04:16:17;6.60;99.90
25877;DHT22;13692;47.480;19.216;2024-01-27T04:18:45;6.50;99.90
25877;DHT22;13692;47.480;19.216;2024-01-27T04:21:12;6.60;99.90
25877;DHT22;13692;47.480;19.216;2024-01-27T04:23:39;6.50;99.90
25877;DHT22;13692;47.480;19.216;2024-01-27T04:26:06;6.50;99.90
25877;DHT22;13692;47.480;19.216;2024-01-27T04:28:33;6.40;99.90
25877;DHT22;13692;47.480;19.216;2024-01-27T04:31:00;6.40;99.90
25877;DHT22;13692;47.480;19.216;2024-01-27T04:33:27;6.40;99.90
25877;DHT22;13692;47.480;19.216;2024-01-27T04:35:54;6.40;99.90
25877;DHT22;13692;47.480;19.216;2024-01-27T04:38:22;6.40;99.90
25877;DHT22;13692;47.480;19.216;2024-01-27T04:40:50;6.40;99.90
25877;DHT22;13692;47.480;19.216;2024-01-27T04:43:18;6.40;99.90
25877;DHT22;13692;47.480;19.216;2024-01-27T04:45:45;6.40;99.90
25877;DHT22;13692;47.480;19.216;2024-01-27T04:48:12;6.30;99.90
25877;DHT22;13692;47.480;19.216;2024-01-27T04:50:39;6.30;99.90
25877;DHT22;13692;47.480;19.216;2024-01-27T04:53:06;6.30;99.90
25877;DHT22;13692;47.480;19.216;2024-01-27T04:55:33;6.30;99.90
25877;DHT22;13692;47.480;19.216;2024-01-27T04:58:00;6.30;99.90
25877;DHT22;13692;47.480;19.216;2024-01-27T05:00:27;6.30;99.90
25877;DHT22;13692;47.480;19.216;2024-01-27T05:02:55;6.30;99.90
25877;DHT22;13692;47.480;19.216;2024-01-27T05:05:22;6.30;99.90
25877;DHT22;13692;47.480;19.216;2024-01-27T05:07:49;6.20;99.90
25877;DHT22;13692;47.480;19.216;2024-01-27T05:10:16;6.20;99.90
25877;DHT22;13692;47.480;19.216;2024-01-27T05:12:43;6.20;99.90
25877;DHT22;13692;47.480;19.216;2024-01-27T05:15:10;6.10;99.90
25877;DHT22;13692;47.480;19.216;2024-01-27T05:17:38;6.10;99.90
25877;DHT22;13692;47.480;19.216;2024-01-27T05:20:06;6.10;99.90
25877;DHT22;13692;47.480;19.216;2024-01-27T05:22:34;6.10;99.90
25877;DHT22;13692;47.480;19.216;2024-01-27T05:25:01;6.10;99.90
25877;DHT22;13692;47.480;19.216;2024-01-27T05:27:28;6.00;99.90
25877;DHT22;13692;47.480;19.216;2024-01-27T05:29:55;6.00;99.90
25877;DHT22;13692;47.480;19.216;2024-01-27T05:32:22;6.00;99.90
25877;DHT22;13692;47.480;19.216;2024-01-27T05:34:49;6.00;99.90
25877;DHT22;13692;47.480;19.216;2024-01-27T05:37:16;6.00;99.90
25877;DHT22;13692;47.480;19.216;2024-01-27T05:39:43;6.00;99.90
25877;DHT22;13692;47.480;19.216;2024-01-27T05:42:10;6.00;99.90
25877;DHT22;13692;47.480;19.216;2024-01-27T05:44:37;6.00;99.90
25877;DHT22;13692;47.480;19.216;2024-01-27T05:47:05;5.90;99.90
25877;DHT22;13692;47.480;19.216;2024-01-27T05:49:36;5.90;99.90
25877;DHT22;13692;47.480;19.216;2024-01-27T05:52:03;5.60;99.90
25877;DHT22;13692;47.480;19.216;2024-01-27T05:54:30;6.00;99.90
25877;DHT22;13692;47.480;19.216;2024-01-27T05:56:57;5.90;99.90
25877;DHT22;13692;47.480;19.216;2024-01-27T05:59:24;5.90;99.90
25877;DHT22;13692;47.480;19.216;2024-01-27T06:01:51;5.90;99.90
25877;DHT22;13692;47.480;19.216;2024-01-27T06:04:18;5.90;99.90
25877;DHT22;13692;47.480;19.216;2024-01-27T06:06:45;5.90;99.90
25877;DHT22;13692;47.480;19.216;2024-01-27T06:09:12;5.90;99.90
25877;DHT22;13692;47.480;19.216;2024-01-27T06:11:40;5.90;99.90
25877;DHT22;13692;47.480;19.216;2024-01-27T06:14:07;5.90;99.90
25877;DHT22;13692;47.480;19.216;2024-01-27T06:16:34;5.90;99.90
25877;DHT22;13692;47.480;19.216;2024-01-27T06:19:02;5.90;99.90
25877;DHT22;13692;47.480;19.216;2024-01-27T06:21:29;5.90;99.90
25877;DHT22;13692;47.480;19.216;2024-01-27T06:23:56;5.80;99.90
25877;DHT22;13692;47.480;19.216;2024-01-27T06:26:23;5.80;99.90
25877;DHT22;13692;47.480;19.216;2024-01-27T06:28:50;5.90;99.90
25877;DHT22;13692;47.480;19.216;2024-01-27T06:31:17;5.90;99.90
25877;DHT22;13692;47.480;19.216;2024-01-27T06:33:44;5.90;99.90
25877;DHT22;13692;47.480;19.216;2024-01-27T06:36:11;5.90;99.90
25877;DHT22;13692;47.480;19.216;2024-01-27T06:38:39;6.00;99.90
25877;DHT22;13692;47.480;19.216;2024-01-27T06:41:05;6.00;99.90
25877;DHT22;13692;47.480;19.216;2024-01-27T06:43:33;5.90;99.90
25877;DHT22;13692;47.480;19.216;2024-01-27T06:46:00;6.00;99.90
25877;DHT22;13692;47.480;19.216;2024-01-27T06:48:26;6.00;99.90
25877;DHT22;13692;47.480;19.216;2024-01-27T06:50:54;6.00;99.90
25877;DHT22;13692;47.480;19.216;2024-01-27T06:53:21;6.10;99.90
25877;DHT22;13692;47.480;19.216;2024-01-27T06:55:48;6.00;99.90
25877;DHT22;13692;47.480;19.216;2024-01-27T06:58:16;6.10;99.90
25877;DHT22;13692;47.480;19.216;2024-01-27T07:00:44;6.10;99.90
25877;DHT22;13692;47.480;19.216;2024-01-27T07:03:11;6.10;99.90
25877;DHT22;13692;47.480;19.216;2024-01-27T07:05:40;6.20;99.90
25877;DHT22;13692;47.480;19.216;2024-01-27T07:08:08;6.20;99.90
25877;DHT22;13692;47.480;19.216;2024-01-27T07:10:35;6.30;99.90
25877;DHT22;13692;47.480;19.216;2024-01-27T07:13:03;6.30;99.90
25877;DHT22;13692;47.480;19.216;2024-01-27T07:15:30;6.30;99.90
25877;DHT22;13692;47.480;19.216;2024-01-27T07:17:57;6.40;99.90
25877;DHT22;13692;47.480;19.216;2024-01-27T07:20:24;6.50;99.90
25877;DHT22;13692;47.480;19.216;2024-01-27T07:22:51;6.80;99.90
25877;DHT22;13692;47.480;19.216;2024-01-27T07:25:18;7.00;99.90
25877;DHT22;13692;47.480;19.216;2024-01-27T07:27:45;7.20;99.90
25877;DHT22;13692;47.480;19.216;2024-01-27T07:30:14;7.40;99.90
25877;DHT22;13692;47.480;19.216;2024-01-27T07:32:42;7.70;99.90
25877;DHT22;13692;47.480;19.216;2024-01-27T07:35:11;7.90;99.90
25877;DHT22;13692;47.480;19.216;2024-01-27T07:37:38;8.10;99.90
25877;DHT22;13692;47.480;19.216;2024-01-27T07:40:05;8.20;99.90
25877;DHT22;13692;47.480;19.216;2024-01-27T07:42:32;8.30;99.90
25877;DHT22;13692;47.480;19.216;2024-01-27T07:44:59;8.50;99.90
25877;DHT22;13692;47.480;19.216;2024-01-27T07:47:26;8.60;99.90
25877;DHT22;13692;47.480;19.216;2024-01-27T07:49:53;8.90;99.90
25877;DHT22;13692;47.480;19.216;2024-01-27T07:52:21;9.00;99.90
25877;DHT22;13692;47.480;19.216;2024-01-27T07:54:48;9.10;99.90
25877;DHT22;13692;47.480;19.216;2024-01-27T07:57:14;9.10;99.90
25877;DHT22;13692;47.480;19.216;2024-01-27T07:59:41;9.20;99.90
25877;DHT22;13692;47.480;19.216;2024-01-27T08:02:08;9.30;99.90
25877;DHT22;13692;47.480;19.216;2024-01-27T08:04:35;9.40;99.90
25877;DHT22;13692;47.480;19.216;2024-01-27T08:07:04;9.50;99.90
25877;DHT22;13692;47.480;19.216;2024-01-27T08:09:36;9.70;99.90
25877;DHT22;13692;47.480;19.216;2024-01-27T08:12:05;9.80;99.90
25877;DHT22;13692;47.480;19.216;2024-01-27T08:14:33;10.00;99.90
25877;DHT22;13692;47.480;19.216;2024-01-27T08:17:02;10.20;99.60
25877;DHT22;13692;47.480;19.216;2024-01-27T08:19:32;10.20;99.70
25877;DHT22;13692;47.480;19.216;2024-01-27T08:21:59;10.20;99.70
25877;DHT22;13692;47.480;19.216;2024-01-27T08:24:26;10.30;99.90
25877;DHT22;13692;47.480;19.216;2024-01-27T08:26:54;10.50;99.70
25877;DHT22;13692;47.480;19.216;2024-01-27T08:29:21;10.60;99.30
25877;DHT22;13692;47.480;19.216;2024-01-27T08:31:48;10.60;99.50
25877;DHT22;13692;47.480;19.216;2024-01-27T08:34:15;10.70;99.40
25877;DHT22;13692;47.480;19.216;2024-01-27T08:36:43;10.90;99.20
25877;DHT22;13692;47.480;19.216;2024-01-27T08:39:10;11.20;98.70
25877;DHT22;13692;47.480;19.216;2024-01-27T08:41:39;11.30;98.20
25877;DHT22;13692;47.480;19.216;2024-01-27T08:44:06;11.40;97.70
25877;DHT22;13692;47.480;19.216;2024-01-27T08:46:33;11.50;97.50
25877;DHT22;13692;47.480;19.216;2024-01-27T08:49:00;11.80;97.10
25877;DHT22;13692;47.480;19.216;2024-01-27T08:51:27;11.90;96.80
25877;DHT22;13692;47.480;19.216;2024-01-27T08:53:54;12.10;95.60
25877;DHT22;13692;47.480;19.216;2024-01-27T08:56:21;12.10;95.30
25877;DHT22;13692;47.480;19.216;2024-01-27T08:58:48;12.30;95.40
25877;DHT22;13692;47.480;19.216;2024-01-27T09:01:18;12.30;95.10
25877;DHT22;13692;47.480;19.216;2024-01-27T09:03:45;12.30;95.30
25877;DHT22;13692;47.480;19.216;2024-01-27T09:06:13;12.40;94.80
25877;DHT22;13692;47.480;19.216;2024-01-27T09:08:40;12.40;94.10
25877;DHT22;13692;47.480;19.216;2024-01-27T09:11:08;12.20;94.00
25877;DHT22;13692;47.480;19.216;2024-01-27T09:13:36;12.30;94.10
25877;DHT22;13692;47.480;19.216;2024-01-27T09:16:03;12.30;93.30
25877;DHT22;13692;47.480;19.216;2024-01-27T09:18:30;12.30;93.00
25877;DHT22;13692;47.480;19.216;2024-01-27T09:20:57;12.30;92.80
25877;DHT22;13692;47.480;19.216;2024-01-27T09:23:24;12.60;92.90
25877;DHT22;13692;47.480;19.216;2024-01-27T09:25:51;12.70;92.60
25877;DHT22;13692;47.480;19.216;2024-01-27T09:28:18;12.80;92.00
25877;DHT22;13692;47.480;19.216;2024-01-27T09:30:45;12.80;92.00
25877;DHT22;13692;47.480;19.216;2024-01-27T09:33:12;12.70;92.30
25877;DHT22;13692;47.480;19.216;2024-01-27T09:35:39;12.90;92.50
25877;DHT22;13692;47.480;19.216;2024-01-27T09:38:06;13.10;92.40
25877;DHT22;13692;47.480;19.216;2024-01-27T09:40:39;13.20;91.80
25877;DHT22;13692;47.480;19.216;2024-01-27T09:43:06;13.20;91.50
25877;DHT22;13692;47.480;19.216;2024-01-27T09:45:35;13.20;91.30
25877;DHT22;13692;47.480;19.216;2024-01-27T09:48:03;13.40;90.90
25877;DHT22;13692;47.480;19.216;2024-01-27T09:50:32;13.30;90.90
25877;DHT22;13692;47.480;19.216;2024-01-27T09:52:59;13.30;90.30
25877;DHT22;13692;47.480;19.216;2024-01-27T09:55:27;13.20;90.50
25877;DHT22;13692;47.480;19.216;2024-01-27T09:57:54;13.10;90.60
25877;DHT22;13692;47.480;19.216;2024-01-27T10:00:21;13.00;90.80
25877;DHT22;13692;47.480;19.216;2024-01-27T10:02:50;13.00;91.00
25877;DHT22;13692;47.480;19.216;2024-01-27T10:05:19;13.30;90.80
25877;DHT22;13692;47.480;19.216;2024-01-27T10:07:46;13.30;89.90
25877;DHT22;13692;47.480;19.216;2024-01-27T10:10:13;13.40;90.10
25877;DHT22;13692;47.480;19.216;2024-01-27T10:12:41;13.50;89.60
25877;DHT22;13692;47.480;19.216;2024-01-27T10:15:19;13.60;88.60
25877;DHT22;13692;47.480;19.216;2024-01-27T10:17:47;13.40;86.50
25877;DHT22;13692;47.480;19.216;2024-01-27T10:20:14;13.10;86.40
25877;DHT22;13692;47.480;19.216;2024-01-27T10:22:43;13.10;86.50
25877;DHT22;13692;47.480;19.216;2024-01-27T10:25:12;13.00;86.50
25877;DHT22;13692;47.480;19.216;2024-01-27T10:27:39;12.80;87.60
25877;DHT22;13692;47.480;19.216;2024-01-27T10:30:15;12.90;88.60
25877;DHT22;13692;47.480;19.216;2024-01-27T10:32:43;12.70;87.80
25877;DHT22;13692;47.480;19.216;2024-01-27T10:35:10;12.70;88.80
25877;DHT22;13692;47.480;19.216;2024-01-27T10:37:38;12.50;88.70
25877;DHT22;13692;47.480;19.216;2024-01-27T10:40:07;12.40;89.50
25877;DHT22;13692;47.480;19.216;2024-01-27T10:42:36;12.40;88.90
25877;DHT22;13692;47.480;19.216;2024-01-27T10:45:04;12.40;88.40
25877;DHT22;13692;47.480;19.216;2024-01-27T10:47:32;12.20;88.90
25877;DHT22;13692;47.480;19.216;2024-01-27T10:50:00;11.90;88.40
25877;DHT22;13692;47.480;19.216;2024-01-27T10:52:31;11.70;89.60
25877;DHT22;13692;47.480;19.216;2024-01-27T10:55:00;11.70;89.50
25877;DHT22;13692;47.480;19.216;2024-01-27T10:57:30;11.50;90.00
25877;DHT22;13692;47.480;19.216;2024-01-27T10:59:58;11.30;90.20
25877;DHT22;13692;47.480;19.216;2024-01-27T11:02:31;11.20;90.20
25877;DHT22;13692;47.480;19.216;2024-01-27T11:05:02;11.10;90.30
25877;DHT22;13692;47.480;19.216;2024-01-27T11:07:34;11.00;90.70
25877;DHT22;13692;47.480;19.216;2024-01-27T11:10:02;10.90;90.80
25877;DHT22;13692;47.480;19.216;2024-01-27T11:12:29;11.00;90.40
25877;DHT22;13692;47.480;19.216;2024-01-27T11:14:57;10.90;89.70
25877;DHT22;13692;47.480;19.216;2024-01-27T11:17:27;10.80;89.40
25877;DHT22;13692;47.480;19.216;2024-01-27T11:19:56;10.60;90.10
25877;DHT22;13692;47.480;19.216;2024-01-27T11:22:28;10.50;90.40
25877;DHT22;13692;47.480;19.216;2024-01-27T11:25:08;10.40;90.50
25877;DHT22;13692;47.480;19.216;2024-01-27T11:27:42;10.40;90.90
25877;DHT22;13692;47.480;19.216;2024-01-27T11:30:30;10.30;91.00
25877;DHT22;13692;47.480;19.216;2024-01-27T11:33:01;10.30;91.30
25877;DHT22;13692;47.480;19.216;2024-01-27T11:35:29;10.40;91.30
25877;DHT22;13692;47.480;19.216;2024-01-27T11:37:56;10.20;91.20
25877;DHT22;13692;47.480;19.216;2024-01-27T11:40:23;10.10;91.90
25877;DHT22;13692;47.480;19.216;2024-01-27T11:42:56;10.00;91.90
25877;DHT22;13692;47.480;19.216;2024-01-27T11:45:23;9.90;91.60
25877;DHT22;13692;47.480;19.216;2024-01-27T11:47:51;9.70;91.60
25877;DHT22;13692;47.480;19.216;2024-01-27T11:50:18;9.50;91.70
25877;DHT22;13692;47.480;19.216;2024-01-27T11:52:46;9.40;92.20
25877;DHT22;13692;47.480;19.216;2024-01-27T11:55:13;9.50;92.30
25877;DHT22;13692;47.480;19.216;2024-01-27T11:57:42;9.70;92.20
25877;DHT22;13692;47.480;19.216;2024-01-27T12:00:09;9.80;92.30
25877;DHT22;13692;47.480;19.216;2024-01-27T12:02:38;10.00;92.10
25877;DHT22;13692;47.480;19.216;2024-01-27T12:05:06;10.10;92.20
25877;DHT22;13692;47.480;19.216;2024-01-27T12:07:33;10.10;92.20
25877;DHT22;13692;47.480;19.216;2024-01-27T12:10:00;10.00;91.40
25877;DHT22;13692;47.480;19.216;2024-01-27T12:12:27;9.80;91.70
25877;DHT22;13692;47.480;19.216;2024-01-27T12:14:54;9.80;92.00
25877;DHT22;13692;47.480;19.216;2024-01-27T12:17:22;9.80;92.00
25877;DHT22;13692;47.480;19.216;2024-01-27T12:19:51;9.70;91.70
25877;DHT22;13692;47.480;19.216;2024-01-27T12:22:22;9.60;92.00
25877;DHT22;13692;47.480;19.216;2024-01-27T12:24:49;9.50;91.90
25877;DHT22;13692;47.480;19.216;2024-01-27T12:27:16;9.40;92.00
25877;DHT22;13692;47.480;19.216;2024-01-27T12:29:47;9.30;92.00
25877;DHT22;13692;47.480;19.216;2024-01-27T12:32:15;9.30;92.40
25877;DHT22;13692;47.480;19.216;2024-01-27T12:34:42;9.20;92.20
25877;DHT22;13692;47.480;19.216;2024-01-27T12:37:11;9.10;92.60
25877;DHT22;13692;47.480;19.216;2024-01-27T12:39:46;9.00;92.80
25877;DHT22;13692;47.480;19.216;2024-01-27T12:42:13;9.00;93.10
25877;DHT22;13692;47.480;19.216;2024-01-27T12:44:40;8.90;93.00
25877;DHT22;13692;47.480;19.216;2024-01-27T12:47:07;9.00;93.30
25877;DHT22;13692;47.480;19.216;2024-01-27T12:49:35;9.00;93.10
25877;DHT22;13692;47.480;19.216;2024-01-27T12:52:03;9.00;93.20
25877;DHT22;13692;47.480;19.216;2024-01-27T12:54:30;8.90;93.30
25877;DHT22;13692;47.480;19.216;2024-01-27T12:56:57;8.90;93.60
25877;DHT22;13692;47.480;19.216;2024-01-27T12:59:24;8.80;93.80
25877;DHT22;13692;47.480;19.216;2024-01-27T13:01:51;8.70;93.90
25877;DHT22;13692;47.480;19.216;2024-01-27T13:04:18;8.70;94.40
25877;DHT22;13692;47.480;19.216;2024-01-27T13:06:45;8.70;95.20
25877;DHT22;13692;47.480;19.216;2024-01-27T13:09:12;8.80;95.80
25877;DHT22;13692;47.480;19.216;2024-01-27T13:11:40;8.90;96.30
25877;DHT22;13692;47.480;19.216;2024-01-27T13:14:08;9.00;96.10
25877;DHT22;13692;47.480;19.216;2024-01-27T13:16:36;9.10;95.90
25877;DHT22;13692;47.480;19.216;2024-01-27T13:19:03;9.00;96.00
25877;DHT22;13692;47.480;19.216;2024-01-27T13:21:30;8.80;96.30
25877;DHT22;13692;47.480;19.216;2024-01-27T13:23:57;8.70;96.70
25877;DHT22;13692;47.480;19.216;2024-01-27T13:26:24;8.60;96.80
25877;DHT22;13692;47.480;19.216;2024-01-27T13:28:53;8.50;97.00
25877;DHT22;13692;47.480;19.216;2024-01-27T13:31:20;8.40;97.30
25877;DHT22;13692;47.480;19.216;2024-01-27T13:33:47;8.40;97.60
25877;DHT22;13692;47.480;19.216;2024-01-27T13:36:15;8.40;97.90
25877;DHT22;13692;47.480;19.216;2024-01-27T13:38:43;8.30;97.90
25877;DHT22;13692;47.480;19.216;2024-01-27T13:41:10;8.20;98.00
25877;DHT22;13692;47.480;19.216;2024-01-27T13:43:37;8.20;98.20
25877;DHT22;13692;47.480;19.216;2024-01-27T13:46:04;8.20;98.50
25877;DHT22;13692;47.480;19.216;2024-01-27T13:48:31;8.20;98.30
25877;DHT22;13692;47.480;19.216;2024-01-27T13:50:59;8.20;98.80
25877;DHT22;13692;47.480;19.216;2024-01-27T13:53:26;8.30;98.60
25877;DHT22;13692;47.480;19.216;2024-01-27T13:56:09;9.00;99.90
25877;DHT22;13692;47.480;19.216;2024-01-27T13:58:36;11.50;99.90
25877;DHT22;13692;47.480;19.216;2024-01-27T14:01:03;11.40;96.10
25877;DHT22;13692;47.480;19.216;2024-01-27T14:03:30;10.20;96.50
25877;DHT22;13692;47.480;19.216;2024-01-27T14:05:58;9.40;98.10
25877;DHT22;13692;47.480;19.216;2024-01-27T14:08:25;8.90;99.20
25877;DHT22;13692;47.480;19.216;2024-01-27T14:10:51;8.60;99.80
25877;DHT22;13692;47.480;19.216;2024-01-27T14:13:19;8.40;99.90
25877;DHT22;13692;47.480;19.216;2024-01-27T14:15:46;8.30;99.90
25877;DHT22;13692;47.480;19.216;2024-01-27T14:18:13;8.20;99.90
25877;DHT22;13692;47.480;19.216;2024-01-27T14:20:48;8.10;99.90
25877;DHT22;13692;47.480;19.216;2024-01-27T14:23:15;8.00;99.90
25877;DHT22;13692;47.480;19.216;2024-01-27T14:25:42;8.00;99.90
25877;DHT22;13692;47.480;19.216;2024-01-27T14:28:14;7.90;99.90
25877;DHT22;13692;47.480;19.216;2024-01-27T14:30:41;7.90;99.90
25877;DHT22;13692;47.480;19.216;2024-01-27T14:33:11;7.80;99.90
25877;DHT22;13692;47.480;19.216;2024-01-27T14:35:39;7.80;99.90
25877;DHT22;13692;47.480;19.216;2024-01-27T14:38:07;7.80;99.90
25877;DHT22;13692;47.480;19.216;2024-01-27T14:40:36;7.80;99.90
25877;DHT22;13692;47.480;19.216;2024-01-27T14:43:04;7.70;99.90
25877;DHT22;13692;47.480;19.216;2024-01-27T14:45:36;7.70;99.90
25877;DHT22;13692;47.480;19.216;2024-01-27T14:48:03;7.70;99.90
25877;DHT22;13692;47.480;19.216;2024-01-27T14:50:31;7.60;99.90
25877;DHT22;13692;47.480;19.216;2024-01-27T14:52:59;7.50;99.90
25877;DHT22;13692;47.480;19.216;2024-01-27T14:55:30;7.40;99.90
25877;DHT22;13692;47.480;19.216;2024-01-27T14:57:57;7.30;99.90
25877;DHT22;13692;47.480;19.216;2024-01-27T15:00:24;7.30;99.90
25877;DHT22;13692;47.480;19.216;2024-01-27T15:02:52;7.30;99.90
25877;DHT22;13692;47.480;19.216;2024-01-27T15:05:19;7.20;99.90
25877;DHT22;13692;47.480;19.216;2024-01-27T15:07:46;7.20;99.90
25877;DHT22;13692;47.480;19.216;2024-01-27T15:10:13;7.20;99.90
25877;DHT22;13692;47.480;19.216;2024-01-27T15:12:41;7.20;99.90
25877;DHT22;13692;47.480;19.216;2024-01-27T15:15:08;7.20;99.90
25877;DHT22;13692;47.480;19.216;2024-01-27T15:17:36;7.20;99.90
25877;DHT22;13692;47.480;19.216;2024-01-27T15:20:04;7.20;99.90
25877;DHT22;13692;47.480;19.216;2024-01-27T15:22:31;7.20;99.90
25877;DHT22;13692;47.480;19.216;2024-01-27T15:24:58;7.10;99.90
25877;DHT22;13692;47.480;19.216;2024-01-27T15:27:25;7.10;99.90
25877;DHT22;13692;47.480;19.216;2024-01-27T15:29:52;7.10;99.90
25877;DHT22;13692;47.480;19.216;2024-01-27T15:32:22;7.10;99.90
25877;DHT22;13692;47.480;19.216;2024-01-27T15:34:50;7.00;99.90
25877;DHT22;13692;47.480;19.216;2024-01-27T15:37:18;7.00;99.90